createdAt,value
2017-08-16T00:00:13.968Z,61.40
2017-08-16T00:02:42.045Z,60.70
2017-08-16T00:05:10.118Z,60.90
2017-08-16T00:07:38.982Z,61.00
2017-08-16T00:10:07.380Z,61.00
2017-08-16T00:12:35.466Z,61.20
2017-08-16T00:15:03.578Z,60.90
2017-08-16T00:17:31.714Z,60.40
2017-08-16T00:19:59.803Z,60.50
2017-08-16T00:22:28.499Z,61.50
2017-08-16T00:24:56.616Z,61.70
2017-08-16T00:27:24.768Z,61.90
2017-08-16T00:29:52.876Z,62.20
2017-08-16T00:32:21.736Z,63.70
2017-08-16T00:34:49.820Z,63.20
2017-08-16T00:37:17.911Z,63.40
2017-08-16T00:39:45.983Z,63.50
2017-08-16T00:42:14.071Z,63.40
2017-08-16T00:44:42.921Z,65.60
2017-08-16T00:47:11.009Z,65.20
2017-08-16T00:49:39.086Z,65.50
2017-08-16T00:52:07.163Z,66.10
2017-08-16T00:54:36.030Z,66.80
2017-08-16T00:57:04.123Z,66.70
2017-08-16T00:59:32.194Z,67.20
2017-08-16T01:02:00.282Z,67.20
2017-08-16T01:04:29.130Z,67.20
2017-08-16T01:06:57.242Z,67.20
2017-08-16T01:09:25.328Z,67.20
2017-08-16T01:11:54.192Z,67.20
2017-08-16T01:14:22.271Z,67.20
2017-08-16T01:16:50.356Z,67.30
2017-08-16T01:19:19.199Z,67.20
2017-08-16T01:21:47.295Z,67.10
2017-08-16T01:24:15.379Z,67.00
2017-08-16T01:26:43.471Z,67.70
2017-08-16T01:29:11.564Z,68.60
2017-08-16T01:31:39.639Z,69.00
2017-08-16T01:34:07.714Z,69.40
2017-08-16T01:36:35.827Z,69.90
2017-08-16T01:39:03.928Z,69.90
2017-08-16T01:41:32.007Z,70.10
2017-08-16T01:44:00.898Z,70.50
2017-08-16T01:46:29.759Z,70.60
2017-08-16T01:48:57.859Z,70.50
2017-08-16T01:51:26.692Z,69.80
2017-08-16T01:53:54.791Z,69.80
2017-08-16T01:56:22.873Z,69.10
2017-08-16T01:58:50.963Z,68.30
2017-08-16T02:01:19.043Z,67.70
2017-08-16T02:03:47.898Z,68.20
2017-08-16T02:06:16.000Z,68.20
2017-08-16T02:08:44.070Z,68.80
2017-08-16T02:11:12.237Z,69.10
2017-08-16T02:13:41.101Z,70.10
2017-08-16T02:16:09.275Z,69.60
2017-08-16T02:18:37.347Z,69.90
2017-08-16T02:21:05.431Z,70.10
2017-08-16T02:23:33.511Z,70.10
2017-08-16T02:26:01.607Z,70.10
2017-08-16T02:28:30.467Z,70.70
2017-08-16T02:30:58.550Z,70.70
2017-08-16T02:33:26.639Z,70.70
2017-08-16T02:35:54.711Z,71.00
2017-08-16T02:38:22.811Z,72.10
2017-08-16T02:40:50.904Z,71.50
2017-08-16T02:43:18.988Z,71.10
2017-08-16T02:45:47.053Z,70.80
2017-08-16T02:48:15.136Z,70.70
2017-08-16T02:50:43.210Z,69.50
2017-08-16T02:53:11.298Z,69.10
2017-08-16T02:55:39.381Z,68.20
2017-08-16T02:58:07.575Z,68.30
2017-08-16T03:00:36.411Z,67.00
2017-08-16T03:03:04.491Z,66.90
2017-08-16T03:05:32.572Z,67.10
2017-08-16T03:08:00.647Z,67.90
2017-08-16T03:10:28.714Z,68.10
2017-08-16T03:12:56.790Z,68.00
2017-08-16T03:15:24.858Z,68.60
2017-08-16T03:17:52.955Z,68.10
2017-08-16T03:20:21.028Z,68.80
2017-08-16T03:22:49.108Z,69.00
2017-08-16T03:25:17.199Z,69.20
2017-08-16T03:27:45.271Z,68.70
2017-08-16T03:30:25.432Z,68.20
2017-08-16T03:32:53.507Z,68.30
2017-08-16T03:35:21.588Z,67.50
2017-08-16T03:37:49.663Z,67.20
2017-08-16T03:40:17.760Z,66.90
2017-08-16T03:42:45.830Z,66.50
2017-08-16T03:45:13.907Z,66.40
2017-08-16T03:47:41.994Z,67.40
2017-08-16T03:50:10.074Z,66.40
2017-08-16T03:52:38.240Z,66.40
2017-08-16T03:55:06.311Z,66.70
2017-08-16T03:57:34.387Z,67.30
2017-08-16T04:00:02.455Z,67.30
2017-08-16T04:02:30.551Z,67.50
2017-08-16T04:04:59.391Z,67.30
2017-08-16T04:07:27.486Z,66.70
2017-08-16T04:09:55.580Z,66.90
2017-08-16T04:12:23.669Z,66.90
2017-08-16T04:14:51.755Z,67.10
2017-08-16T04:17:19.837Z,66.50
2017-08-16T04:19:47.913Z,67.60
2017-08-16T04:22:16.768Z,66.70
2017-08-16T04:24:44.838Z,66.50
2017-08-16T04:27:12.906Z,66.60
2017-08-16T04:29:40.996Z,66.70
2017-08-16T04:32:09.839Z,65.70
2017-08-16T04:34:37.936Z,65.70
2017-08-16T04:37:05.995Z,66.70
2017-08-16T04:39:34.078Z,65.40
2017-08-16T04:42:02.157Z,65.60
2017-08-16T04:44:30.226Z,66.70
2017-08-16T04:46:58.436Z,66.70
2017-08-16T04:49:27.283Z,67.20
2017-08-16T04:51:55.381Z,67.20
2017-08-16T04:54:24.236Z,67.40
2017-08-16T04:56:52.340Z,67.40
2017-08-16T04:59:21.211Z,67.60
2017-08-16T05:01:49.282Z,67.60
2017-08-16T05:04:17.352Z,67.90
2017-08-16T05:06:45.435Z,68.80
2017-08-16T05:09:13.507Z,68.80
2017-08-16T05:11:41.583Z,68.30
2017-08-16T05:14:09.650Z,68.70
2017-08-16T05:16:37.885Z,69.00
2017-08-16T05:19:05.966Z,69.50
2017-08-16T05:21:34.087Z,68.70
2017-08-16T05:24:02.152Z,68.10
2017-08-16T05:26:30.231Z,67.30
2017-08-16T05:28:58.302Z,69.10
2017-08-16T05:31:26.384Z,69.80
2017-08-16T05:33:55.233Z,70.00
2017-08-16T05:36:23.310Z,69.90
2017-08-16T05:38:51.402Z,69.30
2017-08-16T05:41:19.470Z,69.20
2017-08-16T05:43:47.583Z,70.00
2017-08-16T05:46:15.680Z,69.30
2017-08-16T05:48:43.766Z,69.70
2017-08-16T05:51:11.831Z,69.00
2017-08-16T05:53:39.923Z,69.80
2017-08-16T05:56:08.156Z,69.40
2017-08-16T05:58:36.240Z,70.10
2017-08-16T06:01:04.320Z,70.20
2017-08-16T06:03:32.406Z,69.50
2017-08-16T06:06:00.492Z,69.00
2017-08-16T06:08:28.587Z,68.50
2017-08-16T06:10:57.426Z,68.40
2017-08-16T06:13:25.515Z,68.50
2017-08-16T06:15:53.598Z,69.00
2017-08-16T06:18:21.667Z,68.50
2017-08-16T06:20:49.804Z,68.00
2017-08-16T06:23:17.875Z,68.50
2017-08-16T06:25:45.966Z,68.10
2017-08-16T06:28:14.040Z,67.90
2017-08-16T06:30:42.114Z,66.70
2017-08-16T06:33:10.187Z,66.80
2017-08-16T06:35:38.254Z,66.90
2017-08-16T06:38:06.323Z,66.70
2017-08-16T06:40:34.449Z,66.90
2017-08-16T06:43:02.531Z,66.80
2017-08-16T06:45:30.626Z,65.80
2017-08-16T06:47:58.710Z,65.40
2017-08-16T06:50:26.795Z,66.20
2017-08-16T06:52:54.870Z,66.30
2017-08-16T06:55:22.968Z,65.80
2017-08-16T06:57:51.056Z,66.00
2017-08-16T07:00:19.152Z,66.10
2017-08-16T07:02:47.239Z,65.60
2017-08-16T07:05:15.469Z,65.70
2017-08-16T07:07:43.570Z,65.60
2017-08-16T07:10:11.696Z,66.40
2017-08-16T07:12:39.800Z,64.50
2017-08-16T07:15:07.931Z,65.10
2017-08-16T07:17:36.052Z,63.90
2017-08-16T07:20:04.144Z,63.80
2017-08-16T07:22:32.263Z,64.70
2017-08-16T07:25:00.364Z,62.80
2017-08-16T07:27:28.455Z,63.20
2017-08-16T07:29:56.527Z,63.00
2017-08-16T07:32:25.371Z,61.30
2017-08-16T07:34:53.442Z,61.30
2017-08-16T07:37:21.523Z,58.50
2017-08-16T07:39:49.590Z,58.70
2017-08-16T07:42:17.658Z,58.70
2017-08-16T07:44:45.729Z,59.00
2017-08-16T07:47:13.820Z,58.10
2017-08-16T07:49:41.891Z,58.30
2017-08-16T07:52:09.977Z,56.50
2017-08-16T07:54:38.066Z,56.60
2017-08-16T07:57:06.150Z,56.50
2017-08-16T07:59:34.999Z,54.90
2017-08-16T08:02:03.103Z,54.80
2017-08-16T08:04:31.962Z,54.80
2017-08-16T08:07:00.018Z,54.70
2017-08-16T08:09:28.096Z,54.00
2017-08-16T08:11:56.164Z,53.40
2017-08-16T08:14:24.234Z,54.00
2017-08-16T08:16:52.312Z,52.10
2017-08-16T08:19:20.383Z,52.00
2017-08-16T08:21:48.456Z,51.50
2017-08-16T08:24:16.518Z,53.10
2017-08-16T08:26:44.603Z,53.70
2017-08-16T08:29:12.670Z,52.50
2017-08-16T08:31:40.743Z,52.10
2017-08-16T08:34:08.806Z,51.20
2017-08-16T08:36:36.887Z,52.00
2017-08-16T08:39:04.952Z,49.90
2017-08-16T08:41:33.031Z,49.60
2017-08-16T08:44:01.112Z,49.70
2017-08-16T08:46:29.174Z,49.80
2017-08-16T08:48:57.279Z,50.70
2017-08-16T08:51:25.335Z,49.60
2017-08-16T08:53:53.452Z,50.00
2017-08-16T09:12:53.907Z,47.80
2017-08-16T09:15:21.979Z,50.40
2017-08-16T09:17:50.054Z,51.10
2017-08-16T09:20:18.148Z,51.00
2017-08-16T09:22:46.227Z,51.10
2017-08-16T09:25:14.295Z,51.10
2017-08-16T09:27:42.354Z,50.90
2017-08-16T09:30:10.435Z,50.00
2017-08-16T09:32:38.553Z,49.50
2017-08-16T09:35:07.399Z,46.80
2017-08-16T09:37:35.481Z,46.80
2017-08-16T09:40:03.542Z,46.50
2017-08-16T09:42:31.622Z,45.90
2017-08-16T09:44:59.691Z,45.60
2017-08-16T09:47:27.763Z,45.50
2017-08-16T09:49:55.890Z,45.50
2017-08-16T09:52:23.959Z,45.90
2017-08-16T09:54:52.025Z,46.10
2017-08-16T09:57:20.095Z,45.50
2017-08-16T09:59:48.919Z,46.10
2017-08-16T10:02:17.025Z,46.00
2017-08-16T10:04:45.108Z,46.10
2017-08-16T10:07:13.176Z,45.70
2017-08-16T10:09:41.251Z,45.80
2017-08-16T10:12:09.322Z,44.80
2017-08-16T10:14:37.411Z,44.90
2017-08-16T10:17:05.466Z,42.90
2017-08-16T10:19:33.553Z,41.70
2017-08-16T10:22:01.611Z,38.30
2017-08-16T10:24:29.680Z,38.90
2017-08-16T10:26:57.750Z,38.80
2017-08-16T10:29:25.822Z,39.10
2017-08-16T10:31:53.887Z,40.50
2017-08-16T10:34:21.960Z,40.80
2017-08-16T10:36:50.084Z,40.40
2017-08-16T10:39:18.171Z,39.90
2017-08-16T10:41:46.231Z,40.10
2017-08-16T10:44:14.297Z,39.00
2017-08-16T10:46:42.367Z,38.50
2017-08-16T10:51:45.036Z,38.80
2017-08-16T10:54:13.106Z,40.40
2017-08-16T10:56:41.179Z,40.20
2017-08-16T10:59:09.271Z,40.40
2017-08-16T11:01:38.164Z,42.80
2017-08-16T11:04:07.047Z,42.10
2017-08-16T11:06:35.115Z,42.00
2017-08-16T11:09:03.186Z,41.80
2017-08-16T11:11:31.256Z,41.90
2017-08-16T11:13:59.327Z,41.40
2017-08-16T11:16:27.403Z,41.30
2017-08-16T11:18:55.476Z,41.10
2017-08-16T11:21:23.537Z,41.10
2017-08-16T11:23:51.624Z,40.30
2017-08-16T11:26:19.682Z,40.00
2017-08-16T11:28:47.754Z,38.90
2017-08-16T11:31:15.827Z,38.70
2017-08-16T11:33:43.899Z,37.00
2017-08-16T11:36:11.990Z,35.70
2017-08-16T11:38:40.056Z,35.80
2017-08-16T11:41:08.894Z,35.50
2017-08-16T11:43:36.965Z,35.40
2017-08-16T11:46:05.038Z,35.30
2017-08-16T11:48:33.151Z,36.10
2017-08-16T11:51:01.224Z,36.10
2017-08-16T11:53:29.335Z,35.50
2017-08-16T11:55:57.403Z,34.90
2017-08-16T11:58:25.472Z,34.70
2017-08-16T12:00:54.331Z,34.80
2017-08-16T12:03:22.404Z,34.80
2017-08-16T12:05:50.488Z,35.60
2017-08-16T12:08:18.546Z,33.90
2017-08-16T12:10:46.624Z,33.00
2017-08-16T12:13:14.716Z,34.10
2017-08-16T12:15:43.567Z,32.60
2017-08-16T12:18:11.638Z,32.60
2017-08-16T12:20:39.710Z,30.90
2017-08-16T12:23:07.805Z,31.60
2017-08-16T12:25:35.867Z,32.10
2017-08-16T12:28:03.948Z,32.50
2017-08-16T12:30:32.019Z,33.00
2017-08-16T12:33:00.099Z,32.60
2017-08-16T12:35:28.176Z,29.30
2017-08-16T12:37:56.247Z,29.80
2017-08-16T12:40:24.319Z,29.20
2017-08-16T12:42:52.385Z,28.10
2017-08-16T12:45:20.452Z,30.10
2017-08-16T12:47:48.536Z,29.30
2017-08-16T12:50:16.635Z,29.40
2017-08-16T12:52:44.730Z,29.50
2017-08-16T12:55:14.199Z,30.00
2017-08-16T12:57:42.276Z,28.90
2017-08-16T13:00:10.371Z,28.40
2017-08-16T13:02:38.435Z,28.70
2017-08-16T13:05:07.479Z,29.10
2017-08-16T13:07:35.544Z,28.40
2017-08-16T13:10:03.619Z,28.30
2017-08-16T13:12:31.687Z,28.60
2017-08-16T13:14:59.758Z,27.50
2017-08-16T13:17:27.832Z,28.90
2017-08-16T13:19:55.912Z,29.30
2017-08-16T13:22:23.975Z,28.60
2017-08-16T13:24:52.057Z,28.40
2017-08-16T13:27:20.137Z,29.10
2017-08-16T13:29:48.212Z,29.20
2017-08-16T13:32:16.284Z,29.60
2017-08-16T13:34:44.358Z,29.80
2017-08-16T13:37:12.775Z,28.50
2017-08-16T13:39:40.862Z,28.70
2017-08-16T13:42:08.941Z,27.80
2017-08-16T13:44:37.020Z,27.70
2017-08-16T13:47:05.095Z,28.20
2017-08-16T13:49:33.160Z,27.80
2017-08-16T13:52:01.246Z,28.20
2017-08-16T13:54:29.307Z,28.80
2017-08-16T13:56:57.387Z,29.40
2017-08-16T13:59:25.452Z,28.80
2017-08-16T14:01:53.575Z,28.60
2017-08-16T14:04:22.417Z,28.30
2017-08-16T14:06:51.263Z,27.30
2017-08-16T14:09:19.332Z,27.30
2017-08-16T14:11:47.402Z,26.80
2017-08-16T14:14:16.245Z,27.90
2017-08-16T14:16:44.312Z,27.30
2017-08-16T14:19:12.396Z,27.40
2017-08-16T14:21:40.458Z,27.50
2017-08-16T14:24:08.542Z,27.50
2017-08-16T14:26:36.619Z,27.60
2017-08-16T14:29:04.690Z,27.40
2017-08-16T14:31:32.763Z,28.50
2017-08-16T14:34:00.835Z,28.80
2017-08-16T14:36:28.911Z,27.50
2017-08-16T14:38:56.983Z,27.30
2017-08-16T14:41:25.056Z,28.20
2017-08-16T14:43:53.139Z,27.30
2017-08-16T14:46:21.214Z,27.30
2017-08-16T14:48:49.291Z,28.00
2017-08-16T14:51:17.363Z,27.80
2017-08-16T14:53:45.430Z,27.40
2017-08-16T14:56:13.520Z,26.90
2017-08-16T14:58:41.583Z,27.30
2017-08-16T15:01:09.658Z,26.80
2017-08-16T15:03:37.719Z,27.40
2017-08-16T15:06:05.790Z,27.40
2017-08-16T15:08:33.863Z,27.40
2017-08-16T15:11:01.948Z,27.40
2017-08-16T15:13:30.800Z,27.80
2017-08-16T15:15:59.650Z,27.30
2017-08-16T15:18:27.714Z,27.30
2017-08-16T15:20:56.548Z,27.30
2017-08-16T15:23:24.643Z,27.20
2017-08-16T15:25:52.767Z,27.90
2017-08-16T15:28:20.846Z,27.70
2017-08-16T15:30:48.936Z,27.80
2017-08-16T15:33:17.019Z,28.10
2017-08-16T15:35:45.162Z,27.80
2017-08-16T15:38:13.255Z,27.60
2017-08-16T15:40:41.345Z,28.30
2017-08-16T15:43:09.431Z,28.20
2017-08-16T15:45:37.513Z,28.40
2017-08-16T15:48:05.583Z,28.70
2017-08-16T15:50:33.655Z,28.30
2017-08-16T15:53:01.746Z,28.50
2017-08-16T15:55:30.605Z,28.60
2017-08-16T15:57:58.684Z,28.60
2017-08-16T16:00:26.776Z,28.40
2017-08-16T16:02:55.631Z,27.70
2017-08-16T16:05:23.713Z,27.50
2017-08-16T16:07:51.792Z,27.70
2017-08-16T16:10:19.885Z,27.90
2017-08-16T16:12:48.738Z,27.90
2017-08-16T16:15:16.847Z,27.90
2017-08-16T16:17:44.926Z,28.00
2017-08-16T16:20:13.016Z,28.30
2017-08-16T16:22:41.081Z,28.20
2017-08-16T16:25:09.166Z,28.50
2017-08-16T16:27:37.240Z,27.80
2017-08-16T16:30:05.313Z,28.00
2017-08-16T16:32:33.412Z,27.90
2017-08-16T16:35:01.506Z,28.40
2017-08-16T16:37:29.590Z,27.70
2017-08-16T16:39:57.676Z,28.20
2017-08-16T16:42:26.539Z,28.50
2017-08-16T16:44:54.759Z,28.50
2017-08-16T16:47:22.870Z,28.60
2017-08-16T16:49:50.940Z,28.50
2017-08-16T16:52:19.078Z,28.10
2017-08-16T16:54:47.151Z,29.10
2017-08-16T16:57:15.228Z,28.70
2017-08-16T16:59:43.298Z,28.60
2017-08-16T17:02:11.368Z,30.00
2017-08-16T17:04:39.440Z,29.30
2017-08-16T17:07:07.504Z,29.30
2017-08-16T17:09:36.355Z,29.70
2017-08-16T17:12:04.424Z,29.60
2017-08-16T17:14:32.505Z,29.50
2017-08-16T17:17:00.566Z,29.50
2017-08-16T17:19:28.647Z,29.50
2017-08-16T17:21:56.752Z,29.70
2017-08-16T17:24:25.604Z,30.00
2017-08-16T17:26:53.672Z,29.70
2017-08-16T17:29:21.777Z,30.00
2017-08-16T17:31:49.843Z,29.70
2017-08-16T17:34:17.927Z,29.90
2017-08-16T17:36:46.768Z,30.30
2017-08-16T17:39:14.840Z,29.90
2017-08-16T17:41:42.920Z,30.60
2017-08-16T17:44:11.011Z,30.60
2017-08-16T17:46:39.084Z,30.60
2017-08-16T17:49:07.157Z,29.90
2017-08-16T17:51:35.239Z,30.50
2017-08-16T17:54:03.308Z,30.70
2017-08-16T17:56:31.379Z,31.30
2017-08-16T17:58:59.451Z,31.00
2017-08-16T18:01:27.529Z,31.10
2017-08-16T18:03:55.603Z,32.80
2017-08-16T18:06:23.697Z,31.10
2017-08-16T18:08:51.775Z,31.80
2017-08-16T18:11:19.851Z,35.40
2017-08-16T18:13:47.925Z,35.20
2017-08-16T18:16:16.037Z,36.80
2017-08-16T18:18:44.140Z,37.20
2017-08-16T18:21:13.444Z,36.60
2017-08-16T18:23:41.577Z,37.60
2017-08-16T18:26:09.668Z,38.90
2017-08-16T18:28:37.759Z,39.80
2017-08-16T18:31:05.823Z,38.60
2017-08-16T18:33:33.895Z,38.80
2017-08-16T18:36:01.971Z,39.40
2017-08-16T18:38:30.164Z,39.70
2017-08-16T18:40:58.244Z,39.70
2017-08-16T18:43:26.320Z,39.90
2017-08-16T18:45:55.167Z,41.30
2017-08-16T18:48:23.238Z,41.30
2017-08-16T18:50:51.308Z,40.10
2017-08-16T18:53:19.370Z,39.50
2017-08-16T18:55:48.415Z,39.50
2017-08-16T18:58:16.483Z,39.40
2017-08-16T19:00:45.327Z,40.20
2017-08-16T19:03:13.404Z,40.20
2017-08-16T19:05:41.480Z,44.00
2017-08-16T19:08:09.551Z,43.50
2017-08-16T19:10:37.624Z,44.00
2017-08-16T19:13:05.699Z,44.00
2017-08-16T19:15:33.803Z,43.90
2017-08-16T19:18:02.679Z,43.40
2017-08-16T19:20:30.764Z,42.70
2017-08-16T19:22:58.836Z,43.70
2017-08-16T19:25:26.914Z,43.50
2017-08-16T19:27:54.981Z,43.80
2017-08-16T19:30:23.921Z,44.90
2017-08-16T19:32:52.009Z,44.80
2017-08-16T19:35:20.098Z,44.80
2017-08-16T19:37:48.184Z,45.30
2017-08-16T19:40:16.261Z,44.60
2017-08-16T19:42:44.337Z,45.20
2017-08-16T19:45:13.175Z,45.40
2017-08-16T19:47:41.256Z,45.40
2017-08-16T19:50:09.327Z,45.30
2017-08-16T19:52:37.412Z,43.10
2017-08-16T19:55:05.494Z,43.00
2017-08-16T19:57:33.571Z,43.80
2017-08-16T20:00:01.643Z,43.90
2017-08-16T20:02:29.715Z,45.80
2017-08-16T20:04:57.793Z,45.60
2017-08-16T20:07:25.912Z,44.40
2017-08-16T20:09:54.347Z,42.70
2017-08-16T20:12:22.496Z,43.90
2017-08-16T20:14:50.787Z,43.80
2017-08-16T20:17:18.936Z,45.50
2017-08-16T20:19:47.031Z,47.00
2017-08-16T20:22:15.309Z,47.00
2017-08-16T20:24:43.503Z,46.50
2017-08-16T20:27:12.015Z,46.90
2017-08-16T20:29:40.288Z,46.50
2017-08-16T20:32:08.577Z,46.20
2017-08-16T20:34:37.935Z,46.00
2017-08-16T20:37:06.123Z,46.40
2017-08-16T20:39:34.959Z,46.40
2017-08-16T20:42:03.191Z,46.30
2017-08-16T20:44:32.208Z,46.80
2017-08-16T20:47:01.334Z,46.30
2017-08-16T20:49:29.536Z,46.30
2017-08-16T20:51:57.623Z,46.40
2017-08-16T20:54:25.745Z,46.40
2017-08-16T20:56:53.822Z,46.20
2017-08-16T20:59:21.935Z,46.10
2017-08-16T21:01:50.032Z,46.40
2017-08-16T21:04:18.883Z,47.30
2017-08-16T21:06:46.967Z,47.30
2017-08-16T21:09:15.043Z,47.00
2017-08-16T21:11:43.115Z,47.00
2017-08-16T21:14:11.244Z,47.50
2017-08-16T21:16:39.330Z,47.60
2017-08-16T21:19:07.436Z,48.00
2017-08-16T21:21:35.531Z,48.30
2017-08-16T21:24:04.636Z,48.00
2017-08-16T21:26:32.764Z,48.00
2017-08-16T21:29:00.905Z,47.70
2017-08-16T21:31:28.990Z,48.20
2017-08-16T21:33:57.056Z,48.40
2017-08-16T21:36:25.128Z,48.40
2017-08-16T21:38:53.195Z,48.50
2017-08-16T21:41:21.250Z,48.30
2017-08-16T21:43:49.323Z,48.40
2017-08-16T21:46:17.391Z,48.60
2017-08-16T21:48:45.463Z,48.80
2017-08-16T21:51:13.523Z,49.00
2017-08-16T21:53:41.600Z,49.00
2017-08-16T21:56:09.739Z,49.30
2017-08-16T21:58:37.819Z,49.80
2017-08-16T22:01:05.899Z,50.00
2017-08-16T22:03:34.735Z,52.10
2017-08-16T22:06:02.806Z,51.30
2017-08-16T22:08:30.907Z,52.50
2017-08-16T22:10:58.987Z,53.00
2017-08-16T22:13:27.053Z,53.30
2017-08-16T22:15:55.124Z,53.10
2017-08-16T22:18:23.205Z,53.60
2017-08-16T22:20:51.264Z,54.20
2017-08-16T22:23:19.363Z,53.90
2017-08-16T22:25:47.440Z,54.60
2017-08-16T22:28:15.507Z,54.40
2017-08-16T22:30:43.591Z,54.10
2017-08-16T22:33:11.654Z,54.80
2017-08-16T22:35:39.719Z,55.60
2017-08-16T22:38:07.787Z,56.40
2017-08-16T22:40:35.870Z,56.80
2017-08-16T22:43:03.934Z,57.10
2017-08-16T22:45:32.011Z,57.50
2017-08-16T22:48:00.082Z,57.70
2017-08-16T22:50:28.180Z,57.40
2017-08-16T22:52:56.323Z,57.40
2017-08-16T22:55:24.416Z,57.00
2017-08-16T22:57:53.256Z,57.80
2017-08-16T23:00:21.318Z,57.70
2017-08-16T23:02:49.390Z,57.10
2017-08-16T23:20:07.838Z,59.70
2017-08-16T23:22:35.916Z,59.60
2017-08-16T23:25:03.993Z,59.10
2017-08-16T23:27:32.073Z,58.70
2017-08-16T23:30:00.158Z,59.30
2017-08-16T23:32:28.244Z,59.60
2017-08-16T23:34:56.316Z,59.50
2017-08-16T23:37:24.387Z,59.40
2017-08-16T23:39:52.467Z,59.40
2017-08-16T23:42:20.580Z,59.30
2017-08-16T23:44:48.668Z,60.10
2017-08-16T23:47:16.739Z,60.10
2017-08-16T23:49:44.816Z,59.80
2017-08-16T23:52:12.884Z,59.80
2017-08-16T23:54:40.974Z,59.70
2017-08-16T23:57:09.041Z,59.80
2017-08-16T23:59:37.116Z,59.60
